sensor_id;sensor_type;location;lat;lon;timestamp;P1;durP1;ratioP1;P2;durP2;ratioP2
24030;SDS011;12240;51.142;22.486;2024-02-21T00:02:36;26.30;;;11.80;;
24030;SDS011;12240;51.142;22.486;2024-02-21T00:05:03;21.90;;;10.30;;
24030;SDS011;12240;51.142;22.486;2024-02-21T00:07:30;20.30;;;9.50;;
24030;SDS011;12240;51.142;22.486;2024-02-21T00:09:58;21.20;;;8.80;;
24030;SDS011;12240;51.142;22.486;2024-02-21T00:12:24;18.60;;;9.10;;
24030;SDS011;12240;51.142;22.486;2024-02-21T00:14:51;19.90;;;9.70;;
24030;SDS011;12240;51.142;22.486;2024-02-21T00:17:17;21.20;;;9.30;;
24030;SDS011;12240;51.142;22.486;2024-02-21T00:19:44;18.00;;;9.50;;
24030;SDS011;12240;51.142;22.486;2024-02-21T00:22:11;23.10;;;9.70;;
24030;SDS011;12240;51.142;22.486;2024-02-21T00:24:38;19.70;;;9.20;;
24030;SDS011;12240;51.142;22.486;2024-02-21T00:27:04;15.90;;;7.80;;
24030;SDS011;12240;51.142;22.486;2024-02-21T00:29:31;18.70;;;8.60;;
24030;SDS011;12240;51.142;22.486;2024-02-21T00:31:58;21.00;;;9.40;;
24030;SDS011;12240;51.142;22.486;2024-02-21T00:34:25;21.30;;;8.50;;
24030;SDS011;12240;51.142;22.486;2024-02-21T00:36:52;15.90;;;9.00;;
24030;SDS011;12240;51.142;22.486;2024-02-21T00:39:19;17.90;;;8.50;;
24030;SDS011;12240;51.142;22.486;2024-02-21T00:41:46;17.00;;;7.30;;
24030;SDS011;12240;51.142;22.486;2024-02-21T00:44:12;14.40;;;7.20;;
24030;SDS011;12240;51.142;22.486;2024-02-21T00:46:40;17.40;;;8.00;;
24030;SDS011;12240;51.142;22.486;2024-02-21T00:49:07;15.90;;;7.20;;
24030;SDS011;12240;51.142;22.486;2024-02-21T00:51:34;17.90;;;8.70;;
24030;SDS011;12240;51.142;22.486;2024-02-21T00:54:01;16.00;;;8.50;;
24030;SDS011;12240;51.142;22.486;2024-02-21T00:56:28;19.60;;;8.10;;
24030;SDS011;12240;51.142;22.486;2024-02-21T00:58:56;16.50;;;7.60;;
24030;SDS011;12240;51.142;22.486;2024-02-21T01:01:23;16.50;;;8.80;;
24030;SDS011;12240;51.142;22.486;2024-02-21T01:03:51;20.80;;;8.30;;
24030;SDS011;12240;51.142;22.486;2024-02-21T01:06:21;20.20;;;7.40;;
24030;SDS011;12240;51.142;22.486;2024-02-21T01:08:48;19.90;;;9.20;;
24030;SDS011;12240;51.142;22.486;2024-02-21T01:11:15;22.10;;;9.80;;
24030;SDS011;12240;51.142;22.486;2024-02-21T01:13:43;16.80;;;8.30;;
24030;SDS011;12240;51.142;22.486;2024-02-21T01:16:10;21.00;;;9.20;;
24030;SDS011;12240;51.142;22.486;2024-02-21T01:18:37;17.20;;;8.90;;
24030;SDS011;12240;51.142;22.486;2024-02-21T01:21:06;17.60;;;8.00;;
24030;SDS011;12240;51.142;22.486;2024-02-21T01:23:34;14.90;;;6.80;;
24030;SDS011;12240;51.142;22.486;2024-02-21T01:26:01;19.90;;;8.10;;
24030;SDS011;12240;51.142;22.486;2024-02-21T01:28:31;19.00;;;7.90;;
24030;SDS011;12240;51.142;22.486;2024-02-21T01:30:58;18.10;;;7.60;;
24030;SDS011;12240;51.142;22.486;2024-02-21T01:33:25;19.50;;;7.70;;
24030;SDS011;12240;51.142;22.486;2024-02-21T01:35:52;17.10;;;7.40;;
24030;SDS011;12240;51.142;22.486;2024-02-21T01:38:19;21.00;;;6.70;;
24030;SDS011;12240;51.142;22.486;2024-02-21T01:40:46;17.70;;;6.00;;
24030;SDS011;12240;51.142;22.486;2024-02-21T01:43:16;16.90;;;6.80;;
24030;SDS011;12240;51.142;22.486;2024-02-21T01:45:46;16.80;;;6.20;;
24030;SDS011;12240;51.142;22.486;2024-02-21T01:48:24;17.60;;;6.20;;
24030;SDS011;12240;51.142;22.486;2024-02-21T01:50:52;14.10;;;6.20;;
24030;SDS011;12240;51.142;22.486;2024-02-21T01:53:21;17.90;;;5.90;;
24030;SDS011;12240;51.142;22.486;2024-02-21T01:55:51;20.20;;;6.40;;
24030;SDS011;12240;51.142;22.486;2024-02-21T01:58:19;17.20;;;6.40;;
24030;SDS011;12240;51.142;22.486;2024-02-21T02:00:46;15.80;;;5.70;;
24030;SDS011;12240;51.142;22.486;2024-02-21T02:03:15;12.10;;;5.30;;
24030;SDS011;12240;51.142;22.486;2024-02-21T02:05:47;15.20;;;5.90;;
24030;SDS011;12240;51.142;22.486;2024-02-21T02:08:18;11.60;;;5.10;;
24030;SDS011;12240;51.142;22.486;2024-02-21T02:10:46;11.00;;;4.60;;
24030;SDS011;12240;51.142;22.486;2024-02-21T02:13:13;11.40;;;4.40;;
24030;SDS011;12240;51.142;22.486;2024-02-21T02:18:14;18.60;;;5.00;;
24030;SDS011;12240;51.142;22.486;2024-02-21T02:20:42;12.60;;;4.90;;
24030;SDS011;12240;51.142;22.486;2024-02-21T02:23:32;19.40;;;4.90;;
24030;SDS011;12240;51.142;22.486;2024-02-21T02:25:58;14.20;;;4.10;;
24030;SDS011;12240;51.142;22.486;2024-02-21T02:35:32;16.70;;;4.10;;
24030;SDS011;12240;51.142;22.486;2024-02-21T02:38:01;13.50;;;4.40;;
24030;SDS011;12240;51.142;22.486;2024-02-21T02:40:27;9.10;;;3.60;;
24030;SDS011;12240;51.142;22.486;2024-02-21T02:42:53;7.40;;;3.10;;
24030;SDS011;12240;51.142;22.486;2024-02-21T02:45:21;15.00;;;4.00;;
24030;SDS011;12240;51.142;22.486;2024-02-21T02:47:52;9.70;;;3.50;;
24030;SDS011;12240;51.142;22.486;2024-02-21T02:50:20;11.60;;;3.50;;
24030;SDS011;12240;51.142;22.486;2024-02-21T02:52:46;10.30;;;3.10;;
24030;SDS011;12240;51.142;22.486;2024-02-21T02:55:12;14.50;;;4.10;;
24030;SDS011;12240;51.142;22.486;2024-02-21T02:57:38;11.10;;;3.30;;
24030;SDS011;12240;51.142;22.486;2024-02-21T03:03:12;14.50;;;3.00;;
24030;SDS011;12240;51.142;22.486;2024-02-21T03:05:38;10.50;;;3.10;;
24030;SDS011;12240;51.142;22.486;2024-02-21T03:08:04;10.10;;;2.80;;
24030;SDS011;12240;51.142;22.486;2024-02-21T03:10:34;11.10;;;3.00;;
24030;SDS011;12240;51.142;22.486;2024-02-21T03:13:00;12.00;;;2.90;;
24030;SDS011;12240;51.142;22.486;2024-02-21T03:15:26;11.80;;;3.60;;
24030;SDS011;12240;51.142;22.486;2024-02-21T03:17:52;12.70;;;3.50;;
24030;SDS011;12240;51.142;22.486;2024-02-21T03:20:18;7.80;;;2.50;;
24030;SDS011;12240;51.142;22.486;2024-02-21T03:22:45;9.50;;;3.30;;
24030;SDS011;12240;51.142;22.486;2024-02-21T03:25:11;8.50;;;2.80;;
24030;SDS011;12240;51.142;22.486;2024-02-21T03:27:39;7.00;;;3.00;;
24030;SDS011;12240;51.142;22.486;2024-02-21T03:30:05;7.70;;;2.80;;
24030;SDS011;12240;51.142;22.486;2024-02-21T03:32:32;7.40;;;2.80;;
24030;SDS011;12240;51.142;22.486;2024-02-21T03:34:58;7.80;;;3.20;;
24030;SDS011;12240;51.142;22.486;2024-02-21T03:37:25;12.00;;;3.30;;
24030;SDS011;12240;51.142;22.486;2024-02-21T03:39:51;12.60;;;2.60;;
24030;SDS011;12240;51.142;22.486;2024-02-21T03:42:17;8.80;;;3.00;;
24030;SDS011;12240;51.142;22.486;2024-02-21T03:44:43;7.50;;;2.70;;
24030;SDS011;12240;51.142;22.486;2024-02-21T03:47:09;11.50;;;3.10;;
24030;SDS011;12240;51.142;22.486;2024-02-21T03:49:37;10.30;;;2.80;;
24030;SDS011;12240;51.142;22.486;2024-02-21T03:52:04;12.90;;;2.80;;
24030;SDS011;12240;51.142;22.486;2024-02-21T03:54:30;12.20;;;2.80;;
24030;SDS011;12240;51.142;22.486;2024-02-21T03:56:56;15.10;;;3.90;;
24030;SDS011;12240;51.142;22.486;2024-02-21T03:59:22;10.20;;;2.80;;
24030;SDS011;12240;51.142;22.486;2024-02-21T04:01:54;12.10;;;3.10;;
24030;SDS011;12240;51.142;22.486;2024-02-21T04:04:21;11.20;;;3.00;;
24030;SDS011;12240;51.142;22.486;2024-02-21T04:06:48;9.40;;;2.40;;
24030;SDS011;12240;51.142;22.486;2024-02-21T04:09:14;6.10;;;2.10;;
24030;SDS011;12240;51.142;22.486;2024-02-21T04:11:41;13.20;;;2.80;;
24030;SDS011;12240;51.142;22.486;2024-02-21T04:14:07;7.30;;;2.40;;
24030;SDS011;12240;51.142;22.486;2024-02-21T04:16:34;6.50;;;2.60;;
24030;SDS011;12240;51.142;22.486;2024-02-21T04:19:00;9.20;;;2.70;;
24030;SDS011;12240;51.142;22.486;2024-02-21T04:21:27;10.80;;;2.60;;
24030;SDS011;12240;51.142;22.486;2024-02-21T04:23:53;13.10;;;3.30;;
24030;SDS011;12240;51.142;22.486;2024-02-21T04:26:19;11.80;;;3.60;;
24030;SDS011;12240;51.142;22.486;2024-02-21T04:28:45;12.00;;;3.00;;
24030;SDS011;12240;51.142;22.486;2024-02-21T04:31:12;12.60;;;3.20;;
24030;SDS011;12240;51.142;22.486;2024-02-21T04:33:39;15.80;;;3.30;;
24030;SDS011;12240;51.142;22.486;2024-02-21T04:36:04;9.60;;;2.30;;
24030;SDS011;12240;51.142;22.486;2024-02-21T04:38:31;12.50;;;2.80;;
24030;SDS011;12240;51.142;22.486;2024-02-21T04:40:57;12.30;;;3.00;;
24030;SDS011;12240;51.142;22.486;2024-02-21T04:43:24;11.70;;;2.80;;
24030;SDS011;12240;51.142;22.486;2024-02-21T04:45:50;9.00;;;2.80;;
24030;SDS011;12240;51.142;22.486;2024-02-21T04:48:19;16.80;;;2.90;;
24030;SDS011;12240;51.142;22.486;2024-02-21T04:50:46;11.50;;;2.40;;
24030;SDS011;12240;51.142;22.486;2024-02-21T04:53:12;8.80;;;2.60;;
24030;SDS011;12240;51.142;22.486;2024-02-21T04:55:38;9.40;;;2.20;;
24030;SDS011;12240;51.142;22.486;2024-02-21T05:00:15;11.10;;;2.90;;
24030;SDS011;12240;51.142;22.486;2024-02-21T05:02:41;10.60;;;2.90;;
24030;SDS011;12240;51.142;22.486;2024-02-21T05:05:08;9.50;;;3.60;;
24030;SDS011;12240;51.142;22.486;2024-02-21T05:07:35;10.40;;;3.20;;
24030;SDS011;12240;51.142;22.486;2024-02-21T05:10:02;13.40;;;3.30;;
24030;SDS011;12240;51.142;22.486;2024-02-21T05:12:29;9.70;;;2.80;;
24030;SDS011;12240;51.142;22.486;2024-02-21T05:14:56;13.70;;;3.70;;
24030;SDS011;12240;51.142;22.486;2024-02-21T05:17:23;9.10;;;2.90;;
24030;SDS011;12240;51.142;22.486;2024-02-21T05:19:50;7.50;;;3.00;;
24030;SDS011;12240;51.142;22.486;2024-02-21T05:22:18;10.90;;;3.30;;
24030;SDS011;12240;51.142;22.486;2024-02-21T05:24:45;11.90;;;3.40;;
24030;SDS011;12240;51.142;22.486;2024-02-21T05:27:12;8.10;;;3.00;;
24030;SDS011;12240;51.142;22.486;2024-02-21T05:29:39;16.20;;;2.90;;
24030;SDS011;12240;51.142;22.486;2024-02-21T05:32:05;10.40;;;3.00;;
24030;SDS011;12240;51.142;22.486;2024-02-21T05:34:33;11.50;;;3.20;;
24030;SDS011;12240;51.142;22.486;2024-02-21T05:38:39;9.90;;;2.80;;
24030;SDS011;12240;51.142;22.486;2024-02-21T05:41:06;11.00;;;3.40;;
24030;SDS011;12240;51.142;22.486;2024-02-21T05:43:37;13.20;;;3.30;;
